createdAt,value
2017-05-26T00:00:16.250Z,0
2017-05-26T00:01:17.960Z,0
2017-05-26T00:02:23.096Z,0
2017-05-26T00:03:24.808Z,0
2017-05-26T00:04:26.582Z,0
2017-05-26T00:05:28.284Z,0
2017-05-26T00:06:30.118Z,0
2017-05-26T00:07:31.846Z,0
2017-05-26T00:08:33.513Z,0
2017-05-26T00:09:35.189Z,0
2017-05-26T00:10:37.045Z,0
2017-05-26T00:11:38.785Z,0
2017-05-26T00:12:40.592Z,0
2017-05-26T00:13:42.544Z,0
2017-05-26T00:14:44.547Z,0
2017-05-26T00:15:46.310Z,0
2017-05-26T00:16:48.250Z,0
2017-05-26T00:17:50.261Z,0
2017-05-26T00:18:52.060Z,0
2017-05-26T00:19:53.807Z,0
2017-05-26T00:20:55.587Z,0
2017-05-26T00:21:57.322Z,0
2017-05-26T00:22:59.542Z,0
2017-05-26T00:24:01.167Z,0
2017-05-26T00:25:02.904Z,0
2017-05-26T00:26:04.707Z,0
2017-05-26T00:27:06.553Z,0
2017-05-26T00:28:08.317Z,0
2017-05-26T00:29:10.105Z,0
2017-05-26T00:30:11.900Z,0
2017-05-26T00:31:13.893Z,0
2017-05-26T00:32:15.968Z,0
2017-05-26T00:33:18.531Z,0
2017-05-26T00:34:20.275Z,0
2017-05-26T00:35:23.361Z,0
2017-05-26T00:36:25.037Z,0
2017-05-26T00:37:26.796Z,0
2017-05-26T00:38:28.547Z,0
2017-05-26T00:39:30.563Z,0
2017-05-26T00:40:33.087Z,0
2017-05-26T00:41:35.028Z,0
2017-05-26T00:42:36.761Z,0
2017-05-26T00:43:38.513Z,0
2017-05-26T00:44:40.565Z,0
2017-05-26T00:45:42.255Z,0
2017-05-26T00:46:44.105Z,0
2017-05-26T00:47:46.064Z,0
2017-05-26T00:48:48.688Z,0
2017-05-26T00:49:51.201Z,0
2017-05-26T00:50:52.950Z,0
2017-05-26T00:51:54.676Z,0
2017-05-26T00:52:57.556Z,0
2017-05-26T00:53:59.314Z,0
2017-05-26T00:55:00.979Z,0
2017-05-26T00:56:02.884Z,0
2017-05-26T00:57:05.321Z,0
2017-05-26T00:58:07.037Z,0
2017-05-26T00:59:08.812Z,0
2017-05-26T01:00:10.432Z,0
2017-05-26T01:01:12.113Z,0
2017-05-26T01:02:13.810Z,0
2017-05-26T01:03:15.422Z,0
2017-05-26T01:04:17.113Z,0
2017-05-26T01:05:18.813Z,0
2017-05-26T01:06:20.453Z,0
2017-05-26T01:07:22.150Z,0
2017-05-26T01:08:23.847Z,0
2017-05-26T01:09:25.478Z,0
2017-05-26T01:10:27.277Z,0
2017-05-26T01:11:28.959Z,0
2017-05-26T01:12:30.664Z,0
2017-05-26T01:13:32.274Z,0
2017-05-26T01:14:33.965Z,0
2017-05-26T01:15:35.599Z,0
2017-05-26T01:16:37.270Z,0
2017-05-26T01:17:39.018Z,0
2017-05-26T01:18:40.709Z,0
2017-05-26T01:19:42.347Z,0
2017-05-26T01:20:43.956Z,0
2017-05-26T01:21:45.621Z,0
2017-05-26T01:22:47.321Z,0
2017-05-26T01:23:49.006Z,0
2017-05-26T01:24:50.722Z,0
2017-05-26T01:25:52.381Z,0
2017-05-26T01:26:54.099Z,0
2017-05-26T01:27:55.754Z,0
2017-05-26T01:28:57.378Z,0
2017-05-26T01:29:59.113Z,0
2017-05-26T01:31:00.802Z,0
2017-05-26T01:32:02.437Z,0
2017-05-26T01:33:04.122Z,0
2017-05-26T01:34:05.780Z,0
2017-05-26T01:35:07.442Z,0
2017-05-26T01:36:09.155Z,0
2017-05-26T01:37:10.797Z,0
2017-05-26T01:38:12.515Z,0
2017-05-26T01:39:14.193Z,0
2017-05-26T01:40:15.895Z,0
2017-05-26T01:41:17.568Z,0
2017-05-26T01:42:19.278Z,0
2017-05-26T01:43:20.932Z,0
2017-05-26T01:44:22.575Z,0
2017-05-26T01:45:24.308Z,0
2017-05-26T01:46:25.989Z,0
2017-05-26T01:47:27.668Z,0
2017-05-26T01:48:29.292Z,0
2017-05-26T01:49:30.935Z,0
2017-05-26T01:50:32.600Z,0
2017-05-26T01:51:34.349Z,0
2017-05-26T01:52:36.110Z,0
2017-05-26T01:53:37.844Z,0
2017-05-26T01:54:39.527Z,0
2017-05-26T01:55:41.171Z,0
2017-05-26T01:56:42.861Z,0
2017-05-26T01:57:44.626Z,0
2017-05-26T01:58:46.275Z,0
2017-05-26T01:59:48.000Z,0
2017-05-26T02:00:49.752Z,0
2017-05-26T02:01:51.477Z,0
2017-05-26T02:02:53.216Z,0
2017-05-26T02:03:54.912Z,0
2017-05-26T02:04:57.324Z,0
2017-05-26T02:05:59.073Z,0
2017-05-26T02:07:00.806Z,0
2017-05-26T02:08:02.545Z,0
2017-05-26T02:09:04.249Z,0
2017-05-26T02:10:05.946Z,0
2017-05-26T02:11:07.635Z,0
2017-05-26T02:12:09.426Z,0
2017-05-26T02:13:11.159Z,0
2017-05-26T02:14:12.899Z,0
2017-05-26T02:15:14.534Z,0
2017-05-26T02:16:16.218Z,0
2017-05-26T02:17:17.892Z,0
2017-05-26T02:18:19.684Z,0
2017-05-26T02:19:21.360Z,0
2017-05-26T02:20:23.032Z,0
2017-05-26T02:21:24.669Z,0
2017-05-26T02:22:26.362Z,0
2017-05-26T02:23:28.119Z,0
2017-05-26T02:24:29.788Z,0
2017-05-26T02:25:31.514Z,0
2017-05-26T02:26:33.179Z,0
2017-05-26T02:27:34.879Z,0
2017-05-26T02:28:36.687Z,0
2017-05-26T02:29:38.359Z,0
2017-05-26T02:30:40.084Z,0
2017-05-26T02:31:41.788Z,0
2017-05-26T02:32:43.517Z,0
2017-05-26T02:33:45.349Z,0
2017-05-26T02:34:47.072Z,0
2017-05-26T02:35:48.724Z,0
2017-05-26T02:36:50.364Z,0
2017-05-26T02:37:52.017Z,0
2017-05-26T02:38:53.752Z,0
2017-05-26T02:39:55.395Z,0
2017-05-26T02:40:57.107Z,0
2017-05-26T02:41:58.902Z,0
2017-05-26T02:43:00.599Z,0
2017-05-26T02:44:02.336Z,0
2017-05-26T02:45:04.005Z,0
2017-05-26T02:46:05.710Z,0
2017-05-26T02:47:07.439Z,0
2017-05-26T02:48:09.137Z,0
2017-05-26T02:49:10.853Z,0
2017-05-26T02:50:12.531Z,0
2017-05-26T02:51:14.160Z,0
2017-05-26T02:52:15.822Z,0
2017-05-26T02:53:17.469Z,0
2017-05-26T02:54:19.171Z,0
2017-05-26T02:55:20.860Z,0
2017-05-26T02:56:22.595Z,0
2017-05-26T02:57:24.240Z,0
2017-05-26T02:58:25.941Z,0
2017-05-26T02:59:27.617Z,0
2017-05-26T03:00:29.261Z,0
2017-05-26T03:01:30.997Z,0
2017-05-26T03:02:32.683Z,0
2017-05-26T03:03:34.388Z,0
2017-05-26T03:04:36.030Z,0
2017-05-26T03:05:37.750Z,0
2017-05-26T03:06:39.510Z,0
2017-05-26T03:07:41.180Z,0
2017-05-26T03:08:42.861Z,0
2017-05-26T03:09:44.577Z,5
2017-05-26T03:10:46.283Z,5
2017-05-26T03:11:48.034Z,5
2017-05-26T03:12:49.725Z,5
2017-05-26T03:13:51.473Z,5
2017-05-26T03:14:53.170Z,5
2017-05-26T03:15:54.849Z,5
2017-05-26T03:16:56.557Z,5
2017-05-26T03:17:58.298Z,5
2017-05-26T03:19:00.056Z,10
2017-05-26T03:20:01.799Z,10
2017-05-26T03:21:03.454Z,10
2017-05-26T03:22:05.266Z,10
2017-05-26T03:23:06.979Z,10
2017-05-26T03:24:08.700Z,15
2017-05-26T03:25:10.434Z,15
2017-05-26T03:26:12.135Z,15
2017-05-26T03:27:13.885Z,15
2017-05-26T03:28:15.581Z,15
2017-05-26T03:29:17.320Z,20
2017-05-26T03:30:19.005Z,20
2017-05-26T03:31:20.736Z,20
2017-05-26T03:32:22.467Z,20
2017-05-26T03:33:24.119Z,25
2017-05-26T03:34:25.752Z,25
2017-05-26T03:35:27.448Z,25
2017-05-26T03:36:29.145Z,30
2017-05-26T03:37:30.888Z,30
2017-05-26T03:38:32.570Z,30
2017-05-26T03:39:34.310Z,35
2017-05-26T03:40:36.127Z,35
2017-05-26T03:41:37.897Z,35
2017-05-26T03:42:39.791Z,40
2017-05-26T03:43:41.574Z,40
2017-05-26T03:44:43.325Z,40
2017-05-26T03:45:45.101Z,45
2017-05-26T03:46:46.816Z,45
2017-05-26T03:47:48.499Z,50
2017-05-26T03:48:50.246Z,50
2017-05-26T03:49:51.977Z,50
2017-05-26T03:50:53.664Z,55
2017-05-26T03:51:55.371Z,55
2017-05-26T03:52:57.091Z,60
2017-05-26T03:53:58.830Z,60
2017-05-26T03:55:00.555Z,65
2017-05-26T03:56:02.284Z,65
2017-05-26T03:57:04.037Z,65
2017-05-26T03:58:05.855Z,70
2017-05-26T03:59:07.605Z,70
2017-05-26T04:00:09.468Z,70
2017-05-26T04:01:11.199Z,75
2017-05-26T04:02:12.896Z,75
2017-05-26T04:03:14.629Z,80
2017-05-26T04:04:16.376Z,80
2017-05-26T04:05:18.159Z,85
2017-05-26T04:06:19.924Z,85
2017-05-26T04:07:21.666Z,90
2017-05-26T04:08:23.370Z,90
2017-05-26T04:09:25.056Z,95
2017-05-26T04:10:26.765Z,95
2017-05-26T04:11:28.442Z,100
2017-05-26T04:12:30.174Z,100
2017-05-26T04:13:31.818Z,100
2017-05-26T04:14:33.543Z,105
2017-05-26T04:15:35.315Z,105
2017-05-26T04:16:37.043Z,110
2017-05-26T04:17:38.751Z,115
2017-05-26T04:18:40.462Z,115
2017-05-26T04:19:42.192Z,120
2017-05-26T04:20:43.953Z,125
2017-05-26T04:21:45.688Z,130
2017-05-26T04:22:47.387Z,140
2017-05-26T04:23:49.070Z,145
2017-05-26T04:24:50.778Z,180
2017-05-26T04:25:52.528Z,275
2017-05-26T04:26:54.277Z,370
2017-05-26T04:27:56.016Z,415
2017-05-26T04:28:57.822Z,435
2017-05-26T04:29:59.579Z,470
2017-05-26T04:31:40.830Z,520
2017-05-26T04:32:42.527Z,530
2017-05-26T04:33:44.226Z,520
2017-05-26T04:34:45.919Z,550
2017-05-26T04:35:47.676Z,580
2017-05-26T04:36:49.470Z,600
2017-05-26T04:37:51.171Z,610
2017-05-26T04:38:52.879Z,610
2017-05-26T04:39:54.573Z,610
2017-05-26T04:40:56.255Z,620
2017-05-26T04:41:57.969Z,585
2017-05-26T04:42:59.663Z,565
2017-05-26T04:44:01.355Z,670
2017-05-26T04:45:03.030Z,690
2017-05-26T04:46:04.688Z,690
2017-05-26T04:47:06.527Z,730
2017-05-26T04:48:08.207Z,750
2017-05-26T04:49:09.870Z,765
2017-05-26T04:50:11.516Z,780
2017-05-26T04:51:13.184Z,755
2017-05-26T04:52:14.946Z,805
2017-05-26T04:53:16.588Z,815
2017-05-26T04:54:18.315Z,805
2017-05-26T04:55:20.004Z,790
2017-05-26T04:56:21.664Z,800
2017-05-26T04:57:23.413Z,810
2017-05-26T04:58:25.092Z,845
2017-05-26T04:59:26.845Z,885
2017-05-26T05:00:28.584Z,900
2017-05-26T05:01:30.222Z,935
2017-05-26T05:02:31.938Z,955
2017-05-26T05:03:33.642Z,950
2017-05-26T05:04:35.325Z,965
2017-05-26T05:05:37.063Z,945
2017-05-26T05:06:38.780Z,970
2017-05-26T05:07:40.506Z,995
2017-05-26T05:08:42.256Z,990
2017-05-26T05:09:43.997Z,1015
2017-05-26T05:10:45.737Z,955
2017-05-26T05:11:47.457Z,965
2017-05-26T05:12:49.167Z,1045
2017-05-26T05:13:50.873Z,1110
2017-05-26T05:14:52.629Z,1085
2017-05-26T05:15:54.330Z,1080
2017-05-26T05:16:56.021Z,1130
2017-05-26T05:17:57.725Z,1135
2017-05-26T05:18:59.401Z,1145
2017-05-26T05:20:01.144Z,1235
2017-05-26T05:21:02.842Z,1265
2017-05-26T05:22:04.467Z,1240
2017-05-26T05:23:06.198Z,1150
2017-05-26T05:24:07.913Z,1125
2017-05-26T05:25:09.601Z,1220
2017-05-26T05:26:11.591Z,1300
2017-05-26T05:27:13.252Z,1265
2017-05-26T05:28:14.991Z,1240
2017-05-26T05:29:16.627Z,1225
2017-05-26T05:30:18.354Z,1235
2017-05-26T05:31:20.077Z,1365
2017-05-26T05:32:21.829Z,1360
2017-05-26T05:33:23.565Z,1180
2017-05-26T05:34:25.252Z,1095
2017-05-26T05:35:26.974Z,1145
2017-05-26T05:36:28.700Z,1270
2017-05-26T05:37:30.362Z,1330
2017-05-26T05:38:32.064Z,1370
2017-05-26T05:39:33.803Z,1425
2017-05-26T05:40:35.454Z,1405
2017-05-26T05:41:37.212Z,1355
2017-05-26T05:42:38.948Z,1340
2017-05-26T05:44:20.188Z,1220
2017-05-26T05:45:21.834Z,1255
2017-05-26T05:46:23.494Z,1370
2017-05-26T05:47:25.150Z,1440
2017-05-26T05:48:26.790Z,1435
2017-05-26T05:49:28.526Z,1445
2017-05-26T05:50:30.189Z,1485
2017-05-26T05:51:31.823Z,1415
2017-05-26T05:52:33.488Z,1415
2017-05-26T05:53:35.155Z,1505
2017-05-26T05:54:36.872Z,1545
2017-05-26T05:55:38.610Z,1500
2017-05-26T05:56:40.293Z,1555
2017-05-26T05:57:41.956Z,1570
2017-05-26T05:58:43.609Z,1570
2017-05-26T05:59:45.340Z,1640
2017-05-26T06:00:47.061Z,1625
2017-05-26T06:01:48.717Z,1700
2017-05-26T06:02:50.407Z,1700
2017-05-26T06:03:52.062Z,1685
2017-05-26T06:04:53.747Z,1730
2017-05-26T06:05:55.380Z,1795
2017-05-26T06:06:57.124Z,1725
2017-05-26T06:07:58.811Z,1645
2017-05-26T06:09:00.522Z,1655
2017-05-26T06:10:02.272Z,1705
2017-05-26T06:11:03.916Z,1790
2017-05-26T06:12:05.571Z,1830
2017-05-26T06:13:07.187Z,1785
2017-05-26T06:14:08.863Z,1830
2017-05-26T06:15:10.594Z,1870
2017-05-26T06:16:12.304Z,1755
2017-05-26T06:17:14.729Z,1695
2017-05-26T06:18:16.385Z,1800
2017-05-26T06:19:18.076Z,1830
2017-05-26T06:20:19.780Z,1630
2017-05-26T06:21:21.503Z,1595
2017-05-26T06:22:23.150Z,1750
2017-05-26T06:23:24.809Z,1915
2017-05-26T06:24:26.445Z,1960
2017-05-26T06:25:28.151Z,1910
2017-05-26T06:26:29.819Z,1780
2017-05-26T06:27:31.610Z,1685
2017-05-26T06:28:33.358Z,1745
2017-05-26T06:29:34.999Z,1905
2017-05-26T06:30:36.726Z,2050
2017-05-26T06:31:38.380Z,2075
2017-05-26T06:32:40.014Z,2110
2017-05-26T06:33:41.741Z,2075
2017-05-26T06:34:43.459Z,2055
2017-05-26T06:35:45.135Z,2030
2017-05-26T06:36:46.827Z,1945
2017-05-26T06:37:48.514Z,1935
2017-05-26T06:38:50.245Z,1985
2017-05-26T06:39:51.905Z,2095
2017-05-26T06:40:53.662Z,2195
2017-05-26T06:41:55.382Z,2120
2017-05-26T06:42:57.054Z,2125
2017-05-26T06:43:58.765Z,2035
2017-05-26T06:45:00.466Z,1965
2017-05-26T06:46:02.174Z,2030
2017-05-26T06:47:03.912Z,2085
2017-05-26T06:48:05.571Z,2065
2017-05-26T06:49:07.297Z,2125
2017-05-26T06:50:08.977Z,2195
2017-05-26T06:51:10.687Z,2170
2017-05-26T06:52:12.459Z,2240
2017-05-26T06:53:14.986Z,2320
2017-05-26T06:54:16.766Z,2215
2017-05-26T06:55:18.442Z,2280
2017-05-26T06:56:20.230Z,2325
2017-05-26T06:57:21.911Z,2285
2017-05-26T06:58:23.622Z,2355
2017-05-26T06:59:25.307Z,2415
2017-05-26T07:00:26.960Z,2355
2017-05-26T07:01:28.706Z,2335
2017-05-26T07:02:30.405Z,2355
2017-05-26T07:03:32.148Z,2295
2017-05-26T07:04:33.911Z,2295
2017-05-26T07:05:35.639Z,2315
2017-05-26T07:06:37.379Z,2395
2017-05-26T07:07:39.060Z,2210
2017-05-26T07:08:40.828Z,2055
2017-05-26T07:09:42.579Z,2175
2017-05-26T07:10:44.272Z,2375
2017-05-26T07:11:46.000Z,2400
2017-05-26T07:12:47.730Z,2175
2017-05-26T07:13:49.478Z,2125
2017-05-26T07:14:51.260Z,2295
2017-05-26T07:15:52.930Z,2490
2017-05-26T07:16:54.711Z,2515
2017-05-26T07:17:56.434Z,2525
2017-05-26T07:18:58.274Z,2580
2017-05-26T07:20:00.114Z,2520
2017-05-26T07:21:02.009Z,2450
2017-05-26T07:22:03.834Z,2410
2017-05-26T07:23:05.621Z,2450
2017-05-26T07:24:07.297Z,2465
2017-05-26T07:25:08.969Z,2415
2017-05-26T07:26:10.695Z,2440
2017-05-26T07:27:12.445Z,2500
2017-05-26T07:28:14.202Z,2520
2017-05-26T07:29:16.017Z,2485
2017-05-26T07:30:17.707Z,2430
2017-05-26T07:31:19.461Z,2430
2017-05-26T07:32:21.186Z,2515
2017-05-26T07:33:22.868Z,2610
2017-05-26T07:34:24.607Z,2670
2017-05-26T07:35:26.317Z,2585
2017-05-26T07:36:27.951Z,2395
2017-05-26T07:37:29.682Z,2160
2017-05-26T07:38:31.375Z,2090
2017-05-26T07:39:33.010Z,2255
2017-05-26T07:40:34.699Z,2500
2017-05-26T07:41:36.338Z,2465
2017-05-26T07:42:38.071Z,2315
2017-05-26T07:43:39.796Z,2305
2017-05-26T07:44:41.443Z,2505
2017-05-26T07:45:43.139Z,2640
2017-05-26T07:46:44.781Z,2705
2017-05-26T07:47:46.527Z,2765
2017-05-26T07:48:48.192Z,2670
2017-05-26T07:49:49.878Z,2555
2017-05-26T07:50:51.561Z,2515
2017-05-26T07:51:53.177Z,2565
2017-05-26T07:52:54.899Z,2660
2017-05-26T07:53:56.537Z,2665
2017-05-26T07:54:58.179Z,2680
2017-05-26T07:55:59.810Z,2600
2017-05-26T07:57:01.517Z,2425
2017-05-26T07:58:03.196Z,2575
2017-05-26T07:59:04.866Z,2700
2017-05-26T08:00:06.547Z,2655
2017-05-26T08:01:08.175Z,2630
2017-05-26T08:02:09.924Z,2680
2017-05-26T08:03:11.764Z,2815
2017-05-26T08:04:13.383Z,2815
2017-05-26T08:05:15.047Z,2725
2017-05-26T08:06:16.684Z,2595
2017-05-26T08:07:18.396Z,2875
2017-05-26T08:08:20.130Z,2945
2017-05-26T08:09:21.763Z,2785
2017-05-26T08:10:23.416Z,2745
2017-05-26T08:11:25.054Z,2790
2017-05-26T08:12:26.688Z,2765
2017-05-26T08:13:28.419Z,2695
2017-05-26T08:14:30.068Z,2770
2017-05-26T08:15:31.804Z,2705
2017-05-26T08:16:33.503Z,2505
2017-05-26T08:17:35.135Z,2335
2017-05-26T08:18:36.812Z,2315
2017-05-26T08:19:38.481Z,2440
2017-05-26T08:20:40.247Z,2600
2017-05-26T08:21:41.897Z,2830
2017-05-26T08:22:43.658Z,2950
2017-05-26T08:23:45.285Z,2865
2017-05-26T08:24:46.974Z,2685
2017-05-26T08:25:48.642Z,2750
2017-05-26T08:26:50.315Z,2820
2017-05-26T08:27:52.086Z,2770
2017-05-26T08:28:53.742Z,2765
2017-05-26T08:29:55.390Z,2720
2017-05-26T08:30:57.035Z,2600
2017-05-26T08:31:58.728Z,2385
2017-05-26T08:33:00.477Z,2355
2017-05-26T08:34:02.187Z,2485
2017-05-26T08:35:03.844Z,2745
2017-05-26T08:36:05.537Z,2870
2017-05-26T08:37:07.217Z,2850
2017-05-26T08:38:08.949Z,2950
2017-05-26T08:39:10.659Z,2930
2017-05-26T08:40:12.354Z,2870
2017-05-26T08:41:14.011Z,3000
2017-05-26T08:42:15.716Z,2970
2017-05-26T08:43:17.442Z,2890
2017-05-26T08:44:19.203Z,2815
2017-05-26T08:45:20.885Z,2635
2017-05-26T08:46:22.562Z,2470
2017-05-26T08:47:24.249Z,2460
2017-05-26T08:48:25.964Z,2625
2017-05-26T08:49:27.641Z,2485
2017-05-26T08:50:29.364Z,2505
2017-05-26T08:51:31.044Z,2700
2017-05-26T08:52:32.715Z,2775
2017-05-26T08:53:34.364Z,2725
2017-05-26T08:54:36.103Z,2755
2017-05-26T08:55:37.745Z,2760
2017-05-26T08:56:39.402Z,3100
2017-05-26T08:57:41.038Z,3840
2017-05-26T08:58:42.680Z,3930
2017-05-26T08:59:44.406Z,3300
2017-05-26T09:00:46.070Z,2745
2017-05-26T09:01:47.730Z,2710
2017-05-26T09:02:49.354Z,2865
2017-05-26T09:03:51.026Z,2905
2017-05-26T09:04:52.757Z,2800
2017-05-26T09:05:54.395Z,2735
2017-05-26T09:06:56.023Z,2700
2017-05-26T09:07:57.685Z,2760
2017-05-26T09:08:59.377Z,2890
2017-05-26T09:10:01.098Z,2990
2017-05-26T09:11:02.748Z,2850
2017-05-26T09:12:04.492Z,2725
2017-05-26T09:13:06.126Z,2770
2017-05-26T09:14:07.817Z,2845
2017-05-26T09:15:09.445Z,2865
2017-05-26T09:16:11.067Z,2865
2017-05-26T09:17:12.733Z,2845
2017-05-26T09:18:14.432Z,2920
2017-05-26T09:19:16.101Z,2855
2017-05-26T09:20:17.761Z,2605
2017-05-26T09:23:18.647Z,2680
2017-05-26T09:24:20.343Z,2805
2017-05-26T09:25:22.015Z,2815
2017-05-26T09:26:23.700Z,2635
2017-05-26T09:27:25.327Z,2555
2017-05-26T09:28:27.101Z,2740
2017-05-26T09:29:28.829Z,2885
2017-05-26T09:30:30.506Z,2940
2017-05-26T09:31:32.197Z,2985
2017-05-26T09:32:34.066Z,2820
2017-05-26T09:33:35.795Z,2630
2017-05-26T09:34:37.555Z,2600
2017-05-26T09:35:39.241Z,2545
2017-05-26T09:36:40.852Z,2495
2017-05-26T09:37:42.428Z,2535
2017-05-26T09:38:44.137Z,2610
2017-05-26T09:39:45.891Z,2620
2017-05-26T09:40:47.726Z,2580
2017-05-26T09:41:49.354Z,2630
2017-05-26T09:42:51.045Z,2655
2017-05-26T09:43:52.717Z,2560
2017-05-26T09:44:54.362Z,2515
2017-05-26T09:45:56.065Z,2560
2017-05-26T09:46:57.745Z,2510
2017-05-26T09:47:59.451Z,2385
2017-05-26T09:49:01.138Z,2440
2017-05-26T09:50:02.780Z,2460
2017-05-26T09:51:04.440Z,2395
2017-05-26T09:52:06.119Z,2385
2017-05-26T09:53:07.929Z,2340
2017-05-26T09:54:09.619Z,2345
2017-05-26T09:55:11.359Z,2385
2017-05-26T09:56:13.065Z,2325
2017-05-26T09:57:14.779Z,2305
2017-05-26T09:58:16.656Z,2415
2017-05-26T09:59:18.354Z,2470
2017-05-26T10:00:20.074Z,2490
2017-05-26T10:01:21.820Z,2455
2017-05-26T10:02:23.562Z,2340
2017-05-26T10:03:25.486Z,2225
2017-05-26T10:04:27.197Z,2095
2017-05-26T10:05:28.930Z,2060
2017-05-26T10:06:30.612Z,2135
2017-05-26T10:07:32.358Z,2240
2017-05-26T10:08:34.192Z,2245
2017-05-26T10:09:35.905Z,2180
2017-05-26T10:10:37.614Z,2100
2017-05-26T10:11:39.323Z,2065
2017-05-26T10:12:41.033Z,1965
2017-05-26T10:13:42.750Z,1985
2017-05-26T10:14:44.509Z,2000
2017-05-26T10:15:46.239Z,1985
2017-05-26T10:16:47.959Z,1955
2017-05-26T10:17:49.669Z,1945
2017-05-26T10:18:51.444Z,1910
2017-05-26T10:19:53.246Z,1860
2017-05-26T10:20:54.939Z,1785
2017-05-26T10:21:56.678Z,1755
2017-05-26T10:22:58.429Z,1775
2017-05-26T10:24:00.152Z,1760
2017-05-26T10:25:01.918Z,1750
2017-05-26T10:26:03.628Z,1840
2017-05-26T10:27:05.478Z,1860
2017-05-26T10:28:07.234Z,1845
2017-05-26T10:29:08.981Z,1710
2017-05-26T10:30:10.725Z,1550
2017-05-26T10:31:12.444Z,1495
2017-05-26T10:32:14.276Z,1530
2017-05-26T10:33:16.097Z,1485
2017-05-26T10:34:17.877Z,1405
2017-05-26T10:35:59.104Z,1270
2017-05-26T10:37:00.831Z,1030
2017-05-26T10:38:02.559Z,500
2017-05-26T10:39:04.313Z,355
2017-05-26T10:40:06.053Z,335
2017-05-26T10:41:09.092Z,325
2017-05-26T10:42:10.768Z,315
2017-05-26T10:43:12.522Z,310
2017-05-26T10:44:14.202Z,300
2017-05-26T10:45:15.953Z,295
2017-05-26T10:46:17.713Z,290
2017-05-26T10:47:19.397Z,290
2017-05-26T10:48:21.094Z,280
2017-05-26T10:49:22.774Z,275
2017-05-26T10:50:24.491Z,270
2017-05-26T10:51:26.335Z,265
2017-05-26T10:52:28.057Z,270
2017-05-26T10:53:29.702Z,270
2017-05-26T10:54:31.441Z,270
2017-05-26T10:55:33.070Z,265
2017-05-26T10:56:34.771Z,265
2017-05-26T10:57:36.411Z,265
2017-05-26T10:58:38.076Z,265
2017-05-26T10:59:39.740Z,265
2017-05-26T11:00:41.437Z,265
2017-05-26T11:01:43.167Z,265
2017-05-26T11:02:44.839Z,265
2017-05-26T11:03:46.516Z,260
2017-05-26T11:04:48.163Z,265
2017-05-26T11:05:49.813Z,275
2017-05-26T11:06:51.604Z,275
2017-05-26T11:07:53.282Z,280
2017-05-26T11:08:54.983Z,285
2017-05-26T11:09:56.654Z,270
2017-05-26T11:10:58.352Z,265
2017-05-26T11:12:00.120Z,260
2017-05-26T11:13:01.783Z,250
2017-05-26T11:14:03.434Z,245
2017-05-26T11:15:05.137Z,240
2017-05-26T11:16:06.894Z,240
2017-05-26T11:17:08.635Z,235
2017-05-26T11:18:10.373Z,235
2017-05-26T11:19:12.066Z,235
2017-05-26T11:20:13.728Z,235
2017-05-26T11:21:15.426Z,240
2017-05-26T11:22:17.191Z,240
2017-05-26T11:23:18.849Z,240
2017-05-26T11:24:20.502Z,240
2017-05-26T11:25:22.209Z,235
2017-05-26T11:26:23.888Z,235
2017-05-26T11:27:25.602Z,235
2017-05-26T11:28:27.305Z,230
2017-05-26T11:29:28.968Z,230
2017-05-26T11:30:30.736Z,230
2017-05-26T11:31:32.407Z,230
2017-05-26T11:32:34.138Z,230
2017-05-26T11:33:35.906Z,230
2017-05-26T11:34:37.557Z,230
2017-05-26T11:35:39.233Z,230
2017-05-26T11:36:40.898Z,230
2017-05-26T11:37:42.674Z,230
2017-05-26T11:38:44.405Z,230
2017-05-26T11:39:46.107Z,230
2017-05-26T11:40:47.866Z,225
2017-05-26T11:41:49.543Z,225
2017-05-26T11:42:51.288Z,230
2017-05-26T11:43:53.031Z,220
2017-05-26T11:44:54.793Z,220
2017-05-26T11:45:56.487Z,220
2017-05-26T11:46:58.165Z,220
2017-05-26T11:48:39.400Z,220
2017-05-26T11:49:41.111Z,225
2017-05-26T11:50:42.780Z,220
2017-05-26T11:51:44.423Z,220
2017-05-26T11:52:46.099Z,215
2017-05-26T11:53:47.798Z,210
2017-05-26T11:54:49.472Z,210
2017-05-26T11:55:51.170Z,210
2017-05-26T11:56:52.869Z,205
2017-05-26T11:57:54.590Z,205
2017-05-26T11:58:56.332Z,205
2017-05-26T11:59:58.081Z,205
2017-05-26T12:00:59.786Z,205
2017-05-26T12:02:01.573Z,210
2017-05-26T12:03:03.253Z,210
2017-05-26T12:04:04.952Z,205
2017-05-26T12:05:06.560Z,205
2017-05-26T12:06:08.181Z,205
2017-05-26T12:07:09.825Z,205
2017-05-26T12:08:11.504Z,205
2017-05-26T12:09:13.226Z,205
2017-05-26T12:10:14.979Z,200
2017-05-26T12:11:16.659Z,205
2017-05-26T12:12:18.353Z,200
2017-05-26T12:13:20.012Z,200
2017-05-26T12:14:21.803Z,200
2017-05-26T12:15:23.461Z,200
2017-05-26T12:16:25.083Z,200
2017-05-26T12:17:26.906Z,200
2017-05-26T12:18:28.658Z,200
2017-05-26T12:19:30.468Z,195
2017-05-26T12:20:32.245Z,195
2017-05-26T12:21:34.072Z,195
2017-05-26T12:22:35.811Z,195
2017-05-26T12:23:37.561Z,195
2017-05-26T12:24:39.213Z,195
2017-05-26T12:25:40.914Z,195
2017-05-26T12:26:42.596Z,200
2017-05-26T12:27:44.244Z,190
2017-05-26T12:28:45.906Z,190
2017-05-26T12:29:47.568Z,190
2017-05-26T12:30:49.272Z,190
2017-05-26T12:31:51.013Z,190
2017-05-26T12:32:52.695Z,190
2017-05-26T12:33:54.410Z,190
2017-05-26T12:34:56.113Z,190
2017-05-26T12:35:57.758Z,190
2017-05-26T12:36:59.478Z,185
2017-05-26T12:38:01.114Z,185
2017-05-26T12:39:02.764Z,185
2017-05-26T12:40:04.427Z,185
2017-05-26T12:41:06.131Z,180
2017-05-26T12:42:07.893Z,180
2017-05-26T12:43:09.574Z,180
2017-05-26T12:44:11.274Z,180
2017-05-26T12:45:12.936Z,180
2017-05-26T12:46:14.537Z,180
2017-05-26T12:47:16.196Z,180
2017-05-26T12:48:17.885Z,180
2017-05-26T12:49:19.630Z,180
2017-05-26T12:50:21.292Z,185
2017-05-26T12:51:23.025Z,180
2017-05-26T12:52:24.611Z,180
2017-05-26T12:53:26.227Z,175
2017-05-26T12:54:27.950Z,175
2017-05-26T12:55:29.616Z,175
2017-05-26T12:56:31.288Z,175
2017-05-26T12:57:32.994Z,175
2017-05-26T12:59:14.268Z,175
2017-05-26T13:00:55.943Z,175
2017-05-26T13:01:57.626Z,180
2017-05-26T13:02:59.295Z,175
2017-05-26T13:04:00.958Z,175
2017-05-26T13:05:02.639Z,175
2017-05-26T13:06:04.404Z,175
2017-05-26T13:07:06.110Z,170
2017-05-26T13:08:07.795Z,170
2017-05-26T13:09:09.524Z,170
2017-05-26T13:10:11.195Z,170
2017-05-26T13:11:13.029Z,170
2017-05-26T13:12:14.707Z,170
2017-05-26T13:13:16.398Z,170
2017-05-26T13:14:18.094Z,170
2017-05-26T13:15:19.754Z,170
2017-05-26T13:16:21.563Z,170
2017-05-26T13:17:23.209Z,170
2017-05-26T13:18:24.913Z,170
2017-05-26T13:19:26.540Z,170
2017-05-26T13:20:28.199Z,170
2017-05-26T13:21:30.064Z,170
2017-05-26T13:22:31.750Z,170
2017-05-26T13:23:33.371Z,170
2017-05-26T13:24:35.007Z,170
2017-05-26T13:25:36.705Z,170
2017-05-26T13:26:38.512Z,175
2017-05-26T13:27:40.173Z,170
2017-05-26T13:28:41.853Z,170
2017-05-26T13:29:43.514Z,170
2017-05-26T13:30:45.233Z,170
2017-05-26T13:31:46.976Z,170
2017-05-26T13:32:48.657Z,170
2017-05-26T13:33:50.315Z,165
2017-05-26T13:34:51.962Z,165
2017-05-26T13:35:53.624Z,165
2017-05-26T13:36:55.343Z,165
2017-05-26T13:37:56.999Z,165
2017-05-26T13:38:58.702Z,165
2017-05-26T13:40:00.375Z,165
2017-05-26T13:41:02.029Z,165
2017-05-26T13:42:03.751Z,165
2017-05-26T13:43:05.448Z,165
2017-05-26T13:44:07.122Z,165
2017-05-26T13:45:08.790Z,165
2017-05-26T13:46:10.503Z,165
2017-05-26T13:47:12.265Z,165
2017-05-26T13:48:13.934Z,165
2017-05-26T13:49:15.613Z,165
2017-05-26T13:50:17.282Z,165
2017-05-26T13:51:18.965Z,165
2017-05-26T13:52:20.767Z,165
2017-05-26T13:54:02.059Z,165
2017-05-26T13:55:58.783Z,165
2017-05-26T13:57:00.475Z,165
2017-05-26T13:58:02.124Z,165
2017-05-26T13:59:04.022Z,165
2017-05-26T14:00:05.744Z,165
2017-05-26T14:01:07.519Z,165
2017-05-26T14:02:09.184Z,165
2017-05-26T14:03:10.859Z,165
2017-05-26T14:04:12.543Z,165
2017-05-26T14:05:14.250Z,165
2017-05-26T14:06:16.272Z,165
2017-05-26T14:07:17.941Z,165
2017-05-26T14:08:19.603Z,165
2017-05-26T14:09:21.325Z,165
2017-05-26T14:10:22.997Z,165
2017-05-26T14:12:04.339Z,165
2017-05-26T14:13:45.486Z,165
2017-05-26T14:14:47.184Z,165
2017-05-26T14:15:48.835Z,160
2017-05-26T14:16:50.503Z,160
2017-05-26T14:17:52.183Z,160
2017-05-26T14:18:54.810Z,160
2017-05-26T14:19:56.517Z,160
2017-05-26T14:20:58.228Z,160
2017-05-26T14:21:59.874Z,160
2017-05-26T14:23:01.536Z,160